createdAt,value
2022-12-03T00:00:59.547Z,99510.47
2022-12-03T00:03:26.103Z,99506.66
2022-12-03T00:05:52.659Z,99509.94
2022-12-03T00:08:19.086Z,99507.94
2022-12-03T00:10:45.463Z,99505.28
2022-12-03T00:13:11.891Z,99506.66
2022-12-03T00:15:38.331Z,99503.03
2022-12-03T00:18:04.825Z,99499.09
2022-12-03T00:20:31.235Z,99496.16
2022-12-03T00:22:57.685Z,99498.56
2022-12-03T00:25:24.113Z,99500.06
2022-12-03T00:27:50.603Z,99498.06
2022-12-03T00:30:17.147Z,99501.59
2022-12-03T00:32:43.546Z,99499.06
2022-12-03T00:35:10.323Z,99501.59
2022-12-03T00:37:36.720Z,99506.19
2022-12-03T00:40:04.412Z,99503.66
2022-12-03T00:42:30.902Z,99503.41
2022-12-03T00:44:57.459Z,99507.94
2022-12-03T00:47:23.831Z,99504.94
2022-12-03T00:49:50.318Z,99503.91
2022-12-03T00:52:16.727Z,99508.22
2022-12-03T00:54:43.158Z,99507.44
2022-12-03T00:57:09.542Z,99510.88
2022-12-03T00:59:35.934Z,99502.38
2022-12-03T01:02:02.402Z,99510.50
2022-12-03T01:04:29.032Z,99505.41
2022-12-03T01:06:55.847Z,99501.88
2022-12-03T01:09:22.282Z,99499.84
2022-12-03T01:11:48.672Z,99500.88
2022-12-03T01:14:17.809Z,99503.66
2022-12-03T01:16:44.359Z,99496.31
2022-12-03T01:19:11.121Z,99507.97
2022-12-03T01:21:37.848Z,99513.56
2022-12-03T01:24:04.894Z,99511.78
2022-12-03T01:26:31.457Z,99511.03
2022-12-03T01:28:57.941Z,99514.94
2022-12-03T01:31:42.913Z,99509.50
2022-12-03T01:34:09.386Z,99519.38
2022-12-03T01:36:35.823Z,99512.69
2022-12-03T01:39:03.628Z,99519.38
2022-12-03T01:41:31.560Z,99516.22
2022-12-03T01:44:06.164Z,99520.16
2022-12-03T01:46:39.148Z,99514.59
2022-12-03T01:49:05.697Z,99519.28
2022-12-03T01:51:32.147Z,99506.84
2022-12-03T01:53:59.171Z,99510.75
2022-12-03T01:56:25.532Z,99518.91
2022-12-03T01:58:51.962Z,99523.84
2022-12-03T02:01:19.143Z,99508.25
2022-12-03T02:03:46.166Z,99514.19
2022-12-03T02:06:20.266Z,99505.47
2022-12-03T02:08:47.887Z,99508.13
2022-12-03T02:11:14.176Z,99514.09
2022-12-03T02:13:40.639Z,99511.31
2022-12-03T02:16:07.443Z,99514.97
2022-12-03T02:18:34.061Z,99521.19
2022-12-03T02:21:19.151Z,99514.09
2022-12-03T02:24:20.681Z,99519.91
2022-12-03T02:26:47.196Z,99513.19
2022-12-03T02:29:13.735Z,99513.06
2022-12-03T02:31:40.297Z,99515.84
2022-12-03T02:34:07.451Z,99513.69
2022-12-03T02:36:35.330Z,99515.97
2022-12-03T02:39:05.231Z,99515.25
2022-12-03T02:41:50.316Z,99517.13
2022-12-03T02:44:16.741Z,99510.03
2022-12-03T02:46:43.259Z,99506.75
2022-12-03T02:49:09.979Z,99518.91
2022-12-03T02:51:36.378Z,99508.78
2022-12-03T02:54:03.332Z,99510.28
2022-12-03T02:56:30.641Z,99514.09
2022-12-03T02:58:59.757Z,99512.81
2022-12-03T03:01:26.566Z,99511.16
2022-12-03T03:03:53.413Z,99504.47
2022-12-03T03:06:20.332Z,99509.38
2022-12-03T03:08:46.726Z,99512.81
2022-12-03T03:11:13.203Z,99505.09
2022-12-03T03:13:39.832Z,99504.94
2022-12-03T03:16:07.545Z,99509.75
2022-12-03T03:18:34.990Z,99504.03
2022-12-03T03:21:01.829Z,99507.22
2022-12-03T03:23:28.213Z,99502.91
2022-12-03T03:26:00.745Z,99501.66
2022-12-03T03:28:28.940Z,99499.00
2022-12-03T03:30:55.994Z,99502.16
2022-12-03T03:33:22.495Z,99495.81
2022-12-03T03:35:49.226Z,99493.81
2022-12-03T03:38:17.877Z,99495.72
2022-12-03T03:40:44.453Z,99496.38
2022-12-03T03:43:11.564Z,99494.69
2022-12-03T03:45:38.264Z,99494.31
2022-12-03T03:48:05.002Z,99489.50
2022-12-03T03:50:31.942Z,99485.34
2022-12-03T03:53:00.012Z,99487.09
2022-12-03T03:55:27.001Z,99481.88
2022-12-03T03:57:53.511Z,99485.19
2022-12-03T04:00:20.100Z,99484.94
2022-12-03T04:02:46.502Z,99479.88
2022-12-03T04:05:21.504Z,99475.56
2022-12-03T04:07:48.057Z,99477.47
2022-12-03T04:10:34.223Z,99474.56
2022-12-03T04:13:01.168Z,99474.56
2022-12-03T04:15:27.805Z,99482.28
2022-12-03T04:18:12.713Z,99479.38
2022-12-03T04:20:39.142Z,99470.84
2022-12-03T04:23:05.950Z,99468.72
2022-12-03T04:25:51.063Z,99466.81
2022-12-03T04:28:36.033Z,99471.50
2022-12-03T04:31:25.110Z,99465.16
2022-12-03T04:34:10.717Z,99476.19
2022-12-03T04:36:37.138Z,99469.72
2022-12-03T04:39:04.032Z,99469.97
2022-12-03T04:41:30.523Z,99473.31
2022-12-03T04:44:17.709Z,99473.91
2022-12-03T04:46:44.153Z,99478.38
2022-12-03T04:49:10.577Z,99471.50
2022-12-03T04:51:37.003Z,99473.41
2022-12-03T04:54:03.523Z,99466.69
2022-12-03T04:56:29.939Z,99467.69
2022-12-03T04:58:56.442Z,99480.91
2022-12-03T05:01:23.015Z,99480.38
2022-12-03T05:03:49.500Z,99477.47
2022-12-03T05:06:16.006Z,99473.53
2022-12-03T05:08:42.416Z,99481.66
2022-12-03T05:11:08.814Z,99482.78
2022-12-03T05:13:35.496Z,99478.97
2022-12-03T05:16:01.902Z,99480.78
2022-12-03T05:18:28.275Z,99482.41
2022-12-03T05:20:54.675Z,99474.31
2022-12-03T05:23:21.543Z,99477.09
2022-12-03T05:25:48.069Z,99481.91
2022-12-03T05:28:14.511Z,99482.66
2022-12-03T05:30:41.196Z,99483.69
2022-12-03T05:33:07.657Z,99481.53
2022-12-03T05:35:34.071Z,99482.00
2022-12-03T05:38:00.473Z,99479.38
2022-12-03T05:40:26.882Z,99478.97
2022-12-03T05:42:57.099Z,99475.84
2022-12-03T05:45:23.485Z,99475.56
2022-12-03T05:47:49.902Z,99475.84
2022-12-03T05:50:34.437Z,99473.41
2022-12-03T05:53:00.930Z,99475.97
2022-12-03T05:55:27.825Z,99465.19
2022-12-03T05:57:54.493Z,99468.59
2022-12-03T06:00:42.813Z,99467.63
2022-12-03T06:03:09.768Z,99467.47
2022-12-03T06:05:36.261Z,99465.19
2022-12-03T06:08:02.742Z,99461.91
2022-12-03T06:10:29.632Z,99463.16
2022-12-03T06:12:56.353Z,99463.44
2022-12-03T06:15:23.086Z,99468.78
2022-12-03T06:17:49.652Z,99463.31
2022-12-03T06:20:18.821Z,99467.22
2022-12-03T06:22:45.265Z,99462.28
2022-12-03T06:25:12.070Z,99459.38
2022-12-03T06:27:38.604Z,99454.81
2022-12-03T06:30:06.170Z,99457.59
2022-12-03T06:32:32.727Z,99452.53
2022-12-03T06:34:59.273Z,99457.84
2022-12-03T06:37:25.677Z,99454.94
2022-12-03T06:39:52.094Z,99451.28
2022-12-03T06:42:18.628Z,99458.38
2022-12-03T06:44:45.056Z,99453.53
2022-12-03T06:47:11.496Z,99456.59
2022-12-03T06:49:37.870Z,99452.41
2022-12-03T06:52:04.387Z,99456.84
2022-12-03T06:54:30.864Z,99460.63
2022-12-03T06:56:57.240Z,99460.13
2022-12-03T06:59:23.615Z,99457.56
2022-12-03T07:01:50.113Z,99460.25
2022-12-03T07:04:16.540Z,99471.75
2022-12-03T07:06:42.942Z,99471.03
2022-12-03T07:09:09.551Z,99475.84
2022-12-03T07:11:42.023Z,99471.88
2022-12-03T07:14:10.954Z,99474.69
2022-12-03T07:16:37.713Z,99480.38
2022-12-03T07:19:05.563Z,99475.56
2022-12-03T07:21:32.279Z,99481.25
2022-12-03T07:23:58.690Z,99477.34
2022-12-03T07:26:25.144Z,99485.97
2022-12-03T07:28:51.596Z,99492.16
2022-12-03T07:31:18.086Z,99494.72
2022-12-03T07:33:44.532Z,99497.84
2022-12-03T07:36:11.097Z,99495.84
2022-12-03T07:38:37.550Z,99496.84
2022-12-03T07:41:04.018Z,99499.13
2022-12-03T07:43:30.467Z,99498.63
2022-12-03T07:45:56.851Z,99500.78
2022-12-03T07:48:23.285Z,99493.56
2022-12-03T07:50:49.780Z,99500.63
2022-12-03T07:53:16.200Z,99503.94
2022-12-03T07:55:42.605Z,99497.75
2022-12-03T07:58:09.370Z,99499.13
2022-12-03T08:00:35.923Z,99495.69
2022-12-03T08:03:02.389Z,99491.25
2022-12-03T08:05:29.726Z,99490.38
2022-12-03T08:07:56.432Z,99491.28
2022-12-03T08:10:24.986Z,99489.22
2022-12-03T08:12:51.655Z,99490.75
2022-12-03T08:15:19.197Z,99493.38
2022-12-03T08:17:48.163Z,99496.09
2022-12-03T08:20:18.831Z,99487.84
2022-12-03T08:22:47.176Z,99486.22
2022-12-03T08:25:21.411Z,99479.34
2022-12-03T08:27:47.821Z,99473.53
2022-12-03T08:30:15.770Z,99472.78
2022-12-03T08:32:42.750Z,99472.88
2022-12-03T08:35:14.026Z,99469.19
2022-12-03T08:37:40.744Z,99466.53
2022-12-03T08:40:21.112Z,99465.25
2022-12-03T08:42:47.609Z,99472.44
2022-12-03T08:45:29.417Z,99473.38
2022-12-03T08:48:05.958Z,99467.03
2022-12-03T08:50:36.384Z,99476.81
2022-12-03T08:53:31.742Z,99471.47
2022-12-03T08:56:22.695Z,99471.59
2022-12-03T08:58:55.150Z,99478.06
2022-12-03T09:01:34.985Z,99472.84
2022-12-03T09:04:32.125Z,99468.78
2022-12-03T09:06:58.652Z,99474.22
2022-12-03T09:09:25.177Z,99470.44
2022-12-03T09:11:52.227Z,99479.81
2022-12-03T09:14:21.142Z,99471.59
2022-12-03T09:16:47.919Z,99469.69
2022-12-03T09:19:14.855Z,99466.78
2022-12-03T09:21:41.274Z,99463.63
2022-12-03T09:24:07.855Z,99468.69
2022-12-03T09:26:34.303Z,99464.09
2022-12-03T09:29:00.766Z,99458.50
2022-12-03T09:31:27.276Z,99463.34
2022-12-03T09:33:53.798Z,99457.47
2022-12-03T09:36:20.231Z,99456.88
2022-12-03T09:38:48.281Z,99458.91
2022-12-03T09:41:17.232Z,99458.91
2022-12-03T09:44:03.398Z,99457.22
2022-12-03T09:46:30.360Z,99458.50
2022-12-03T09:48:57.183Z,99460.78
2022-12-03T09:51:29.586Z,99460.91
2022-12-03T09:53:56.002Z,99456.81
2022-12-03T09:56:23.366Z,99450.91
2022-12-03T09:58:50.355Z,99452.16
2022-12-03T10:01:17.917Z,99435.69
2022-12-03T10:03:47.463Z,99434.69
2022-12-03T10:06:24.085Z,99441.13
2022-12-03T10:08:53.591Z,99437.97
2022-12-03T10:11:21.866Z,99439.50
2022-12-03T10:13:48.581Z,99432.78
2022-12-03T10:16:17.230Z,99430.63
2022-12-03T10:18:47.630Z,99436.19
2022-12-03T10:21:26.776Z,99428.72
2022-12-03T10:24:15.086Z,99423.25
2022-12-03T10:26:41.474Z,99413.38
2022-12-03T10:29:19.442Z,99415.78
2022-12-03T10:31:46.223Z,99416.63
2022-12-03T10:34:12.786Z,99420.63
2022-12-03T10:36:42.195Z,99419.97
2022-12-03T10:39:11.620Z,99415.91
2022-12-03T10:41:38.868Z,99424.00
2022-12-03T10:44:21.398Z,99415.34
2022-12-03T10:47:11.625Z,99422.22
2022-12-03T10:49:39.135Z,99408.03
2022-12-03T10:52:06.384Z,99417.75
2022-12-03T10:54:33.894Z,99419.69
2022-12-03T10:57:02.938Z,99415.34
2022-12-03T10:59:33.622Z,99412.53
2022-12-03T11:02:00.091Z,99404.31
2022-12-03T11:04:33.754Z,99402.69
2022-12-03T11:07:02.663Z,99400.38
2022-12-03T11:09:31.818Z,99397.56
2022-12-03T11:12:06.076Z,99389.44
2022-12-03T11:14:51.648Z,99395.72
2022-12-03T11:17:50.344Z,99383.81
2022-12-03T11:20:22.813Z,99380.28
2022-12-03T11:22:56.886Z,99381.81
2022-12-03T11:25:26.385Z,99379.03
2022-12-03T11:28:11.648Z,99375.31
2022-12-03T11:31:02.139Z,99377.88
2022-12-03T11:33:41.276Z,99369.38
2022-12-03T11:36:12.202Z,99361.09
2022-12-03T11:38:40.657Z,99359.22
2022-12-03T11:41:09.968Z,99359.22
2022-12-03T11:43:51.697Z,99355.50
2022-12-03T11:46:23.783Z,99351.69
2022-12-03T11:48:52.032Z,99349.13
2022-12-03T11:51:20.521Z,99339.88
2022-12-03T11:53:47.217Z,99348.34
2022-12-03T11:56:26.087Z,99345.50
2022-12-03T11:59:01.292Z,99335.25
2022-12-03T12:01:38.801Z,99343.09
2022-12-03T12:04:10.470Z,99348.13
2022-12-03T12:06:53.188Z,99343.16
2022-12-03T12:09:52.233Z,99335.72
2022-12-03T12:12:31.169Z,99326.00
2022-12-03T12:14:58.825Z,99333.13
2022-12-03T12:17:30.466Z,99325.50
2022-12-03T12:20:23.684Z,99319.59
2022-12-03T12:22:50.738Z,99317.81
2022-12-03T12:25:29.262Z,99317.19
2022-12-03T12:27:55.785Z,99328.41
2022-12-03T12:30:23.149Z,99317.28
2022-12-03T12:33:19.598Z,99313.19
2022-12-03T12:35:46.040Z,99305.78
2022-12-03T12:38:24.174Z,99302.69
2022-12-03T12:40:50.864Z,99307.66
2022-12-03T12:43:24.827Z,99300.94
2022-12-03T12:45:56.161Z,99295.34
2022-12-03T12:48:23.863Z,99291.59
2022-12-03T12:51:18.654Z,99296.00
2022-12-03T12:53:45.193Z,99292.50
2022-12-03T12:56:26.494Z,99294.59
2022-12-03T12:58:53.666Z,99294.34
2022-12-03T13:01:22.319Z,99292.44
2022-12-03T13:03:50.737Z,99287.72
2022-12-03T13:06:17.746Z,99283.22
2022-12-03T13:08:49.447Z,99293.81
2022-12-03T13:11:25.212Z,99286.97
2022-12-03T13:13:51.968Z,99285.41
2022-12-03T13:16:19.561Z,99283.22
2022-12-03T13:18:48.295Z,99288.41
2022-12-03T13:21:23.743Z,99281.44
2022-12-03T13:23:55.281Z,99272.50
2022-12-03T13:26:34.529Z,99274.69
2022-12-03T13:29:15.995Z,99277.47
2022-12-03T13:32:08.803Z,99268.75
2022-12-03T13:34:35.441Z,99266.97
2022-12-03T13:37:02.187Z,99277.88
2022-12-03T13:39:32.194Z,99270.63
2022-12-03T13:42:26.429Z,99258.91
2022-12-03T13:44:53.336Z,99263.78
2022-12-03T13:47:21.712Z,99261.13
2022-12-03T13:49:57.118Z,99261.69
2022-12-03T13:52:25.675Z,99258.59
2022-12-03T13:54:54.149Z,99252.06
2022-12-03T13:57:20.584Z,99248.75
2022-12-03T13:59:47.008Z,99249.75
2022-12-03T14:02:13.485Z,99250.28
2022-12-03T14:04:40.262Z,99249.97
2022-12-03T14:07:06.724Z,99249.88
2022-12-03T14:09:33.114Z,99252.50
2022-12-03T14:12:18.200Z,99251.69
2022-12-03T14:14:44.789Z,99251.00
2022-12-03T14:17:11.626Z,99253.84
2022-12-03T14:19:38.267Z,99261.78
2022-12-03T14:22:07.810Z,99253.28
2022-12-03T14:24:34.205Z,99252.50
2022-12-03T14:27:00.587Z,99252.09
2022-12-03T14:29:27.173Z,99256.50
2022-12-03T14:31:53.628Z,99256.59
2022-12-03T14:34:20.633Z,99260.88
2022-12-03T14:36:47.020Z,99255.34
2022-12-03T14:39:13.449Z,99259.81
2022-12-03T14:41:58.436Z,99255.34
2022-12-03T14:44:25.247Z,99264.63
2022-12-03T14:46:56.617Z,99261.69
2022-12-03T14:49:23.601Z,99261.13
2022-12-03T14:51:50.016Z,99266.44
2022-12-03T14:54:16.442Z,99264.22
2022-12-03T14:56:42.818Z,99266.16
2022-12-03T14:59:09.244Z,99263.63
2022-12-03T15:01:35.737Z,99259.22
2022-12-03T15:04:02.301Z,99265.41
2022-12-03T15:06:28.758Z,99263.75
2022-12-03T15:08:55.175Z,99260.66
2022-12-03T15:11:21.551Z,99265.19
2022-12-03T15:13:47.986Z,99263.19
2022-12-03T15:16:14.409Z,99263.75
2022-12-03T15:18:40.811Z,99261.31
2022-12-03T15:21:07.295Z,99261.78
2022-12-03T15:23:33.764Z,99257.56
2022-12-03T15:26:00.155Z,99260.44
2022-12-03T15:28:27.387Z,99259.13
2022-12-03T15:30:53.925Z,99258.19
2022-12-03T15:33:20.356Z,99257.97
2022-12-03T15:35:46.838Z,99250.06
2022-12-03T15:38:13.522Z,99252.28
2022-12-03T15:40:40.063Z,99261.31
2022-12-03T15:43:07.271Z,99253.63
2022-12-03T15:45:34.205Z,99258.91
2022-12-03T15:48:00.821Z,99257.78
2022-12-03T15:50:27.557Z,99263.75
2022-12-03T15:52:54.104Z,99257.78
2022-12-03T15:55:20.565Z,99260.88
2022-12-03T15:57:46.977Z,99252.28
2022-12-03T16:00:14.094Z,99254.06
2022-12-03T16:02:41.162Z,99252.72
2022-12-03T16:05:10.168Z,99252.94
2022-12-03T16:07:36.984Z,99257.59
2022-12-03T16:10:04.889Z,99259.34
2022-12-03T16:12:31.268Z,99257.34
2022-12-03T16:14:57.659Z,99263.09
2022-12-03T16:17:24.085Z,99255.81
2022-12-03T16:19:50.558Z,99258.44
2022-12-03T16:22:17.079Z,99254.16
2022-12-03T16:24:43.512Z,99250.81
2022-12-03T16:27:10.385Z,99257.22
2022-12-03T16:29:36.781Z,99265.81
2022-12-03T16:32:03.337Z,99252.13
2022-12-03T16:34:29.739Z,99254.69
2022-12-03T16:36:56.138Z,99261.53
2022-12-03T16:39:22.566Z,99251.38
2022-12-03T16:41:49.019Z,99251.59
2022-12-03T16:44:32.385Z,99252.06
2022-12-03T16:47:01.891Z,99248.84
2022-12-03T16:49:28.420Z,99241.91
2022-12-03T16:51:54.846Z,99241.91
2022-12-03T16:54:21.236Z,99236.72
2022-12-03T16:56:47.624Z,99237.28
2022-12-03T16:59:14.021Z,99239.81
2022-12-03T17:01:40.536Z,99235.91
2022-12-03T17:04:06.958Z,99239.25
2022-12-03T17:06:33.377Z,99238.63
2022-12-03T17:08:59.779Z,99238.16
2022-12-03T17:11:26.227Z,99232.13
2022-12-03T17:13:52.687Z,99226.69
2022-12-03T17:16:19.219Z,99236.72
2022-12-03T17:18:45.719Z,99235.50
2022-12-03T17:21:12.179Z,99230.91
2022-12-03T17:23:38.621Z,99226.66
2022-12-03T17:26:05.157Z,99224.69
2022-12-03T17:28:31.586Z,99226.00
2022-12-03T17:30:58.044Z,99225.88
2022-12-03T17:33:24.504Z,99230.06
2022-12-03T17:35:50.910Z,99219.50
2022-12-03T17:38:17.414Z,99224.69
2022-12-03T17:40:43.823Z,99222.06
2022-12-03T17:43:10.238Z,99209.91
2022-12-03T17:45:36.776Z,99211.34
2022-12-03T17:48:03.302Z,99206.16
2022-12-03T17:50:29.694Z,99202.88
2022-12-03T17:52:56.065Z,99202.38
2022-12-03T17:55:33.573Z,99204.63
2022-12-03T17:58:04.125Z,99203.72
2022-12-03T18:00:30.638Z,99199.97
2022-12-03T18:02:57.007Z,99195.47
2022-12-03T18:05:23.420Z,99198.25
2022-12-03T18:07:50.600Z,99197.13
2022-12-03T18:10:17.380Z,99192.72
2022-12-03T18:12:43.811Z,99186.09
2022-12-03T18:15:10.594Z,99194.16
2022-12-03T18:17:37.027Z,99193.25
2022-12-03T18:20:04.199Z,99197.84
2022-12-03T18:22:31.323Z,99192.38
2022-12-03T18:24:57.826Z,99193.47
2022-12-03T18:27:24.683Z,99195.34
2022-12-03T18:29:51.223Z,99194.59
2022-12-03T18:32:28.989Z,99186.44
2022-12-03T18:34:56.701Z,99185.88
2022-12-03T18:37:26.193Z,99184.31
2022-12-03T18:39:53.164Z,99174.16
2022-12-03T18:42:20.965Z,99178.25
2022-12-03T18:44:50.023Z,99182.31
2022-12-03T18:47:19.077Z,99183.00
2022-12-03T18:49:45.671Z,99185.97
2022-12-03T18:52:17.318Z,99178.56
2022-12-03T18:54:43.872Z,99184.31
2022-12-03T18:57:10.436Z,99177.59
2022-12-03T18:59:37.000Z,99173.72
2022-12-03T19:02:03.605Z,99164.91
2022-12-03T19:04:30.295Z,99160.28
2022-12-03T19:06:56.717Z,99159.59
2022-12-03T19:09:23.154Z,99157.75
2022-12-03T19:11:49.640Z,99159.75
2022-12-03T19:14:16.060Z,99158.28
2022-12-03T19:16:42.604Z,99146.34
2022-12-03T19:19:09.612Z,99152.75
2022-12-03T19:21:36.186Z,99154.53
2022-12-03T19:26:54.365Z,99147.13
2022-12-03T19:29:22.498Z,99147.06
2022-12-03T19:31:50.536Z,99142.97
2022-12-03T19:34:17.420Z,99153.66
2022-12-03T19:36:43.914Z,99146.56
2022-12-03T19:39:10.418Z,99151.66
2022-12-03T19:41:36.848Z,99158.28
2022-12-03T19:44:09.218Z,99158.06
2022-12-03T19:46:37.234Z,99152.13
2022-12-03T19:49:04.788Z,99156.50
2022-12-03T19:51:35.560Z,99156.72
2022-12-03T19:54:06.456Z,99157.75
2022-12-03T19:56:33.354Z,99152.00
2022-12-03T19:58:59.810Z,99160.50
2022-12-03T20:01:29.056Z,99149.69
2022-12-03T20:03:57.033Z,99154.41
2022-12-03T20:06:26.154Z,99155.63
2022-12-03T20:08:57.225Z,99154.09
2022-12-03T20:11:26.132Z,99155.97
2022-12-03T20:13:54.784Z,99154.97
2022-12-03T20:16:21.673Z,99157.63
2022-12-03T20:18:49.012Z,99164.47
2022-12-03T20:21:17.056Z,99168.44
2022-12-03T20:23:43.515Z,99167.09
2022-12-03T20:26:11.755Z,99166.47
2022-12-03T20:28:39.803Z,99154.31
2022-12-03T20:31:27.799Z,99161.38
2022-12-03T20:33:56.639Z,99161.69
2022-12-03T20:36:23.481Z,99154.72
2022-12-03T20:38:54.836Z,99162.09
2022-12-03T20:41:21.335Z,99148.13
2022-12-03T20:43:48.091Z,99147.91
2022-12-03T20:46:37.343Z,99146.34
2022-12-03T20:49:04.476Z,99154.53
2022-12-03T20:51:31.484Z,99149.91
2022-12-03T20:53:59.319Z,99153.19
2022-12-03T20:56:34.400Z,99146.34
2022-12-03T20:59:04.684Z,99141.63
2022-12-03T21:01:31.263Z,99140.88
2022-12-03T21:03:58.070Z,99145.06
2022-12-03T21:06:26.467Z,99136.44
2022-12-03T21:08:55.330Z,99127.94
2022-12-03T21:11:26.585Z,99124.44
2022-12-03T21:13:54.250Z,99130.06
2022-12-03T21:16:52.146Z,99135.13
2022-12-03T21:19:12.276Z,99136.97
2022-12-03T21:21:38.708Z,99142.84
2022-12-03T21:24:05.373Z,99136.97
2022-12-03T21:26:32.503Z,99126.59
2022-12-03T21:28:58.942Z,99125.97
2022-12-03T21:31:26.516Z,99121.75
2022-12-03T21:33:54.207Z,99119.22
2022-12-03T21:36:20.691Z,99117.78
2022-12-03T21:38:48.125Z,99130.25
2022-12-03T21:41:15.453Z,99129.81
2022-12-03T21:43:42.928Z,99129.94
2022-12-03T21:47:12.408Z,99129.84
2022-12-03T21:48:59.773Z,99128.38
2022-12-03T21:51:26.188Z,99134.44
2022-12-03T21:53:53.377Z,99136.88
2022-12-03T21:56:19.966Z,99130.03
2022-12-03T21:58:46.706Z,99131.13
2022-12-03T22:01:20.499Z,99125.84
2022-12-03T22:03:49.123Z,99131.81
2022-12-03T22:06:15.780Z,99123.19
2022-12-03T22:08:42.557Z,99109.50
2022-12-03T22:11:11.652Z,99112.47
2022-12-03T22:13:38.817Z,99107.53
2022-12-03T22:16:10.406Z,99104.56
2022-12-03T22:18:36.991Z,99110.41
2022-12-03T22:21:08.832Z,99109.94
2022-12-03T22:23:35.400Z,99095.84
2022-12-03T22:26:13.372Z,99094.97
2022-12-03T22:28:42.913Z,99096.72
2022-12-03T22:31:09.732Z,99094.97
2022-12-03T22:33:36.731Z,99088.56
2022-12-03T22:36:12.103Z,99096.59
2022-12-03T22:38:41.178Z,99094.53
2022-12-03T22:41:08.699Z,99091.53
2022-12-03T22:43:38.649Z,99101.69
2022-12-03T22:46:06.746Z,99098.91
2022-12-03T22:48:34.387Z,99096.03
2022-12-03T22:51:00.843Z,99090.00
2022-12-03T22:53:27.260Z,99093.72
2022-12-03T22:55:55.424Z,99083.81
2022-12-03T22:58:21.830Z,99083.13
2022-12-03T23:00:48.344Z,99084.13
2022-12-03T23:03:14.894Z,99081.28
2022-12-03T23:05:41.364Z,99075.31
2022-12-03T23:08:09.824Z,99065.16
2022-12-03T23:10:38.194Z,99071.88
2022-12-03T23:13:05.961Z,99073.31
2022-12-03T23:15:32.547Z,99070.59
2022-12-03T23:17:59.264Z,99069.03
2022-12-03T23:20:29.176Z,99077.75
2022-12-03T23:22:55.626Z,99067.59
2022-12-03T23:25:22.392Z,99069.56
2022-12-03T23:27:49.326Z,99066.38
2022-12-03T23:30:18.792Z,99064.09
2022-12-03T23:32:48.141Z,99067.94
2022-12-03T23:35:14.558Z,99070.69
2022-12-03T23:37:42.832Z,99071.75
2022-12-03T23:40:09.774Z,99068.47
2022-12-03T23:42:36.200Z,99063.31
2022-12-03T23:45:02.651Z,99065.63
2022-12-03T23:47:29.167Z,99063.94
2022-12-03T23:49:55.871Z,99055.78
2022-12-03T23:52:22.530Z,99057.25
2022-12-03T23:54:50.858Z,99064.28
2022-12-03T23:57:18.232Z,99068.25
2022-12-03T23:59:44.675Z,99069.31
